Gunlock, Kentucky
Current Conditions -  °F | °C
As of 10:15 AM on Thursday 23 Oct 2014 (Local Time) from KPBX Reporting Station
Overcast Overcast  
Wind Chill: 46°   Ceiling: 3200
Heat Index: 46°   Visibility: 10mi
Dew Point: 41°   Wind: 3mph
Humidity: 81%   Direction: 30°NNE
Pressure: 30.23"   Gusts: NA
Location:  37.55°N, 82.92°W
Report Text: KPBX 231415Z AUTO 03003KT 10SM OVC032 08/05 A3023 RMK AO2 T00800050
Loading
Personal Weather Stations






























Interactive Weather Map
Tropical Storm Tracking
New forecast layout! Learn more

10-Day Weather Forecast

Advertisements
Track Severe Weather on mobile